createdAt,value
2023-03-10T00:00:11.154Z,71.12
2023-03-10T00:01:11.164Z,71.33
2023-03-10T00:02:11.131Z,71.12
2023-03-10T00:03:11.143Z,71.33
2023-03-10T00:04:11.142Z,71.33
2023-03-10T00:05:11.112Z,71.33
2023-03-10T00:06:11.232Z,71.53
2023-03-10T00:07:11.099Z,72.34
2023-03-10T00:08:11.067Z,72.34
2023-03-10T00:09:11.069Z,72.34
2023-03-10T00:10:11.063Z,72.14
2023-03-10T00:11:11.058Z,72.34
2023-03-10T00:12:11.044Z,72.45
2023-03-10T00:13:11.035Z,72.34
2023-03-10T00:14:11.003Z,72.55
2023-03-10T00:15:11.004Z,72.34
2023-03-10T00:16:11.108Z,72.34
2023-03-10T00:17:11.008Z,72.55
2023-03-10T00:18:10.956Z,72.24
2023-03-10T00:19:10.986Z,72.48
2023-03-10T00:20:10.966Z,72.58
2023-03-10T00:21:10.946Z,72.99
2023-03-10T00:22:10.951Z,73.40
2023-03-10T00:23:10.906Z,73.30
2023-03-10T00:24:10.918Z,72.89
2023-03-10T00:25:10.926Z,72.58
2023-03-10T00:26:10.890Z,72.58
2023-03-10T00:27:10.868Z,72.69
2023-03-10T00:28:10.865Z,72.79
2023-03-10T00:29:10.879Z,72.99
2023-03-10T00:30:10.851Z,73.10
2023-03-10T00:31:10.880Z,72.99
2023-03-10T00:32:10.857Z,72.79
2023-03-10T00:33:10.830Z,72.99
2023-03-10T00:34:10.793Z,72.89
2023-03-10T00:35:10.803Z,72.99
2023-03-10T00:36:10.803Z,73.10
2023-03-10T00:37:10.789Z,73.19
2023-03-10T00:38:10.784Z,73.10
2023-03-10T00:39:11.854Z,72.79
2023-03-10T00:40:10.750Z,72.79
2023-03-10T00:41:10.725Z,72.38
2023-03-10T00:42:10.717Z,72.69
2023-03-10T00:43:10.716Z,72.79
2023-03-10T00:44:10.702Z,72.92
2023-03-10T00:45:10.704Z,72.82
2023-03-10T00:46:10.703Z,73.23
2023-03-10T00:47:10.685Z,73.03
2023-03-10T00:48:10.647Z,72.92
2023-03-10T00:49:10.648Z,72.92
2023-03-10T00:50:10.638Z,72.82
2023-03-10T00:51:10.623Z,72.62
2023-03-10T00:52:10.612Z,72.31
2023-03-10T00:53:10.599Z,72.52
2023-03-10T00:54:10.613Z,72.41
2023-03-10T00:55:10.582Z,72.52
2023-03-10T00:56:10.569Z,72.31
2023-03-10T00:57:10.572Z,71.91
2023-03-10T00:58:10.540Z,72.00
2023-03-10T00:59:10.541Z,71.91
2023-03-10T01:00:10.541Z,72.21
2023-03-10T01:01:10.550Z,72.21
2023-03-10T01:02:10.511Z,71.80
2023-03-10T01:03:10.502Z,72.00
2023-03-10T01:04:10.507Z,71.91
2023-03-10T01:05:10.472Z,71.91
2023-03-10T01:06:10.452Z,72.11
2023-03-10T01:07:10.463Z,72.21
2023-03-10T01:08:10.442Z,72.31
2023-03-10T01:09:10.454Z,72.41
2023-03-10T01:10:10.445Z,72.52
2023-03-10T01:11:10.424Z,72.62
2023-03-10T01:12:10.424Z,72.72
2023-03-10T01:13:10.403Z,72.82
2023-03-10T01:14:10.371Z,72.92
2023-03-10T01:15:10.409Z,73.03
2023-03-10T01:16:10.395Z,73.23
2023-03-10T01:17:10.364Z,73.33
2023-03-10T01:18:10.334Z,73.33
2023-03-10T01:19:10.328Z,73.43
2023-03-10T01:20:10.323Z,73.64
2023-03-10T01:21:10.322Z,73.84
2023-03-10T01:22:10.303Z,73.84
2023-03-10T01:23:10.304Z,73.84
2023-03-10T01:24:10.263Z,73.84
2023-03-10T01:25:10.277Z,73.94
2023-03-10T01:26:10.245Z,73.94
2023-03-10T01:27:10.260Z,74.05
2023-03-10T01:28:10.255Z,74.15
2023-03-10T01:29:10.225Z,74.05
2023-03-10T01:30:10.203Z,74.15
2023-03-10T01:31:10.235Z,74.15
2023-03-10T01:32:10.205Z,74.25
2023-03-10T01:33:10.198Z,74.35
2023-03-10T01:34:10.165Z,74.25
2023-03-10T01:35:10.148Z,74.35
2023-03-10T01:36:10.173Z,74.45
2023-03-10T01:37:10.146Z,74.55
2023-03-10T01:38:10.130Z,74.55
2023-03-10T01:39:10.133Z,74.69
2023-03-10T01:40:10.113Z,74.76
2023-03-10T01:41:10.117Z,74.90
2023-03-10T01:42:10.082Z,75.10
2023-03-10T01:43:10.077Z,75.07
2023-03-10T01:44:10.044Z,75.07
2023-03-10T01:45:10.046Z,75.07
2023-03-10T01:46:10.078Z,75.16
2023-03-10T01:47:10.025Z,74.96
2023-03-10T01:48:10.023Z,74.96
2023-03-10T01:49:10.020Z,74.96
2023-03-10T01:50:09.996Z,74.96
2023-03-10T01:51:10.002Z,74.96
2023-03-10T01:52:09.961Z,74.76
2023-03-10T01:53:09.957Z,74.45
2023-03-10T01:54:09.945Z,74.35
2023-03-10T01:55:09.958Z,74.25
2023-03-10T01:56:09.920Z,74.25
2023-03-10T01:57:09.913Z,74.25
2023-03-10T01:58:09.905Z,74.05
2023-03-10T01:59:09.895Z,74.15
2023-03-10T02:00:09.907Z,74.25
2023-03-10T02:01:09.923Z,74.18
2023-03-10T02:02:09.874Z,74.29
2023-03-10T02:03:09.856Z,74.08
2023-03-10T02:04:09.862Z,73.98
2023-03-10T02:05:09.847Z,74.18
2023-03-10T02:06:09.831Z,74.29
2023-03-10T02:07:09.848Z,74.29
2023-03-10T02:08:09.809Z,74.59
2023-03-10T02:09:09.804Z,74.69
2023-03-10T02:10:09.781Z,74.59
2023-03-10T02:11:09.774Z,74.49
2023-03-10T02:12:09.777Z,74.79
2023-03-10T02:13:09.750Z,74.69
2023-03-10T02:14:09.741Z,75.00
2023-03-10T02:15:09.747Z,75.10
2023-03-10T02:16:09.779Z,75.27
2023-03-10T02:17:09.714Z,75.41
2023-03-10T02:18:09.802Z,75.41
2023-03-10T02:19:09.726Z,75.57
2023-03-10T02:20:09.661Z,75.68
2023-03-10T02:21:09.675Z,75.68
2023-03-10T02:22:09.680Z,75.68
2023-03-10T02:23:09.652Z,75.88
2023-03-10T02:24:09.653Z,76.09
2023-03-10T02:25:09.641Z,76.09
2023-03-10T02:26:09.622Z,76.29
2023-03-10T02:27:09.628Z,76.39
2023-03-10T02:28:09.600Z,76.50
2023-03-10T02:29:09.574Z,76.59
2023-03-10T02:30:09.578Z,76.70
2023-03-10T02:31:09.611Z,76.90
2023-03-10T02:32:09.601Z,77.00
2023-03-10T02:33:09.570Z,77.21
2023-03-10T02:34:09.543Z,77.31
2023-03-10T02:35:09.537Z,77.51
2023-03-10T02:36:09.589Z,77.51
2023-03-10T02:37:09.486Z,77.75
2023-03-10T02:38:09.521Z,77.82
2023-03-10T02:39:09.468Z,78.16
2023-03-10T02:40:09.467Z,78.16
2023-03-10T02:41:09.446Z,78.27
2023-03-10T02:42:09.452Z,78.37
2023-03-10T02:43:09.447Z,78.47
2023-03-10T02:44:09.428Z,78.57
2023-03-10T02:45:09.417Z,78.77
2023-03-10T02:46:09.448Z,78.88
2023-03-10T02:47:09.409Z,78.98
2023-03-10T02:48:09.400Z,79.18
2023-03-10T02:49:09.369Z,79.28
2023-03-10T02:50:09.355Z,79.39
2023-03-10T02:51:09.392Z,79.39
2023-03-10T02:52:09.344Z,79.59
2023-03-10T02:53:09.355Z,79.80
2023-03-10T02:54:09.365Z,79.90
2023-03-10T02:55:09.334Z,80.10
2023-03-10T02:56:09.324Z,80.20
2023-03-10T02:57:09.296Z,80.30
2023-03-10T02:58:09.285Z,80.41
2023-03-10T02:59:09.305Z,80.51
2023-03-10T03:00:09.295Z,80.51
2023-03-10T03:01:09.283Z,80.61
2023-03-10T03:02:09.236Z,80.85
2023-03-10T03:03:09.261Z,80.96
2023-03-10T03:04:09.323Z,80.96
2023-03-10T03:05:09.228Z,81.16
2023-03-10T03:06:09.203Z,81.16
2023-03-10T03:07:09.220Z,81.37
2023-03-10T03:08:09.196Z,81.46
2023-03-10T03:09:09.175Z,81.46
2023-03-10T03:10:09.177Z,81.67
2023-03-10T03:11:09.136Z,81.67
2023-03-10T03:12:09.178Z,81.77
2023-03-10T03:13:09.136Z,81.77
2023-03-10T03:14:09.122Z,82.08
2023-03-10T03:15:09.122Z,82.18
2023-03-10T03:16:09.123Z,82.39
2023-03-10T03:17:09.108Z,82.59
2023-03-10T03:18:09.080Z,82.69
2023-03-10T03:19:09.058Z,82.79
2023-03-10T03:20:09.058Z,82.79
2023-03-10T03:21:09.058Z,82.89
2023-03-10T03:22:09.066Z,83.00
2023-03-10T03:23:09.035Z,83.20
2023-03-10T03:24:08.998Z,83.30
2023-03-10T03:25:09.011Z,83.51
2023-03-10T03:26:08.977Z,83.61
2023-03-10T03:27:08.990Z,83.61
2023-03-10T03:28:08.958Z,83.65
2023-03-10T03:29:08.959Z,83.75
2023-03-10T03:30:08.948Z,83.85
2023-03-10T03:31:08.984Z,83.85
2023-03-10T03:32:08.997Z,83.95
2023-03-10T03:33:08.908Z,84.06
2023-03-10T03:34:08.888Z,84.06
2023-03-10T03:35:08.887Z,84.16
2023-03-10T03:36:09.007Z,84.26
2023-03-10T03:37:08.880Z,84.26
2023-03-10T03:38:08.847Z,84.26
2023-03-10T03:39:08.838Z,84.26
2023-03-10T03:40:08.818Z,84.36
2023-03-10T03:41:08.836Z,84.36
2023-03-10T03:42:08.820Z,84.47
2023-03-10T03:43:08.809Z,84.47
2023-03-10T03:44:08.789Z,84.47
2023-03-10T03:45:08.790Z,84.47
2023-03-10T03:46:08.812Z,84.61
2023-03-10T03:47:08.786Z,84.61
2023-03-10T03:48:08.750Z,84.71
2023-03-10T03:49:08.731Z,84.71
2023-03-10T03:50:08.827Z,84.81
2023-03-10T03:51:08.729Z,84.81
2023-03-10T03:52:08.734Z,84.91
2023-03-10T03:53:08.698Z,85.02
2023-03-10T03:54:08.693Z,85.12
2023-03-10T03:55:08.682Z,85.22
2023-03-10T03:56:08.663Z,85.32
2023-03-10T03:57:08.651Z,85.42
2023-03-10T03:58:08.652Z,85.53
2023-03-10T03:59:08.654Z,85.53
2023-03-10T04:00:09.563Z,85.63
2023-03-10T04:01:08.632Z,85.63
2023-03-10T04:02:08.638Z,85.63
2023-03-10T04:03:08.656Z,85.73
2023-03-10T04:04:08.601Z,85.73
2023-03-10T04:05:08.586Z,85.73
2023-03-10T04:06:08.565Z,85.77
2023-03-10T04:07:08.543Z,85.77
2023-03-10T04:08:08.526Z,85.77
2023-03-10T04:09:08.536Z,85.77
2023-03-10T04:10:08.535Z,85.88
2023-03-10T04:11:08.505Z,85.88
2023-03-10T04:12:08.530Z,85.77
2023-03-10T04:13:08.498Z,85.88
2023-03-10T04:14:08.466Z,85.88
2023-03-10T04:15:08.489Z,85.88
2023-03-10T04:16:08.547Z,85.88
2023-03-10T04:17:10.697Z,85.97
2023-03-10T04:18:08.416Z,85.88
2023-03-10T04:19:08.456Z,85.97
2023-03-10T04:20:08.726Z,85.97
2023-03-10T04:21:08.396Z,85.97
2023-03-10T04:22:08.395Z,85.97
2023-03-10T04:23:08.389Z,85.97
2023-03-10T04:24:08.369Z,86.08
2023-03-10T04:25:08.371Z,86.08
2023-03-10T04:26:08.361Z,85.97
2023-03-10T04:27:08.357Z,86.08
2023-03-10T04:28:08.340Z,86.18
2023-03-10T04:29:08.310Z,86.18
2023-03-10T04:30:08.310Z,86.18
2023-03-10T04:31:08.299Z,86.18
2023-03-10T04:32:08.273Z,86.18
2023-03-10T04:33:08.281Z,86.29
2023-03-10T04:34:08.255Z,86.29
2023-03-10T04:35:08.273Z,86.29
2023-03-10T04:36:08.271Z,86.38
2023-03-10T04:37:08.243Z,86.38
2023-03-10T04:38:08.232Z,86.38
2023-03-10T04:39:08.233Z,86.49
2023-03-10T04:40:08.224Z,86.49
2023-03-10T04:41:08.183Z,86.59
2023-03-10T04:42:08.164Z,86.69
2023-03-10T04:43:08.216Z,86.69
2023-03-10T04:44:12.786Z,86.69
2023-03-10T04:45:09.167Z,86.79
2023-03-10T04:46:08.154Z,86.79
2023-03-10T04:47:08.137Z,86.79
2023-03-10T04:48:08.105Z,86.69
2023-03-10T04:49:08.121Z,86.69
2023-03-10T04:50:08.097Z,86.59
2023-03-10T04:51:08.086Z,86.59
2023-03-10T04:52:08.074Z,86.59
2023-03-10T04:53:08.059Z,86.49
2023-03-10T04:54:08.067Z,86.49
2023-03-10T04:55:08.036Z,86.49
2023-03-10T04:56:08.050Z,86.38
2023-03-10T04:57:08.029Z,86.38
2023-03-10T04:58:08.028Z,86.29
2023-03-10T04:59:07.990Z,86.29
2023-03-10T05:00:08.198Z,86.29
2023-03-10T05:01:08.096Z,86.18
2023-03-10T05:02:08.066Z,86.18
2023-03-10T05:03:07.976Z,86.18
2023-03-10T05:04:08.019Z,86.29
2023-03-10T05:05:07.933Z,86.29
2023-03-10T05:06:07.927Z,86.18
2023-03-10T05:07:07.915Z,86.29
2023-03-10T05:08:07.900Z,86.29
2023-03-10T05:09:07.938Z,86.29
2023-03-10T05:10:07.890Z,86.38
2023-03-10T05:11:07.867Z,86.38
2023-03-10T05:12:07.865Z,86.29
2023-03-10T05:13:07.865Z,86.38
2023-03-10T05:14:07.816Z,86.38
2023-03-10T05:15:07.836Z,86.49
2023-03-10T05:16:07.832Z,86.59
2023-03-10T05:17:07.825Z,86.59
2023-03-10T05:18:07.787Z,86.59
2023-03-10T05:19:07.815Z,86.63
2023-03-10T05:20:07.759Z,86.73
2023-03-10T05:21:07.785Z,86.73
2023-03-10T05:22:07.757Z,86.94
2023-03-10T05:23:07.745Z,87.04
2023-03-10T05:24:07.727Z,87.14
2023-03-10T05:25:07.729Z,87.14
2023-03-10T05:26:07.689Z,87.24
2023-03-10T05:27:07.708Z,87.45
2023-03-10T05:28:07.676Z,87.59
2023-03-10T05:29:07.677Z,87.70
2023-03-10T05:30:07.661Z,87.90
2023-03-10T05:31:07.651Z,87.90
2023-03-10T05:32:07.646Z,88.00
2023-03-10T05:33:07.625Z,87.90
2023-03-10T05:34:07.628Z,87.79
2023-03-10T05:35:07.628Z,87.79
2023-03-10T05:36:07.747Z,87.79
2023-03-10T05:37:07.586Z,87.90
2023-03-10T05:38:07.569Z,88.00
2023-03-10T05:39:07.593Z,88.10
2023-03-10T05:40:07.558Z,88.20
2023-03-10T05:41:07.570Z,88.31
2023-03-10T05:42:07.564Z,88.20
2023-03-10T05:43:07.536Z,88.20
2023-03-10T05:44:07.511Z,88.35
2023-03-10T05:45:07.526Z,88.20
2023-03-10T05:46:07.492Z,88.20
2023-03-10T05:47:07.600Z,88.10
2023-03-10T05:48:07.496Z,88.10
2023-03-10T05:49:07.471Z,88.10
2023-03-10T05:50:07.472Z,88.10
2023-03-10T05:51:07.483Z,88.00
2023-03-10T05:52:07.434Z,87.79
2023-03-10T05:53:07.413Z,87.79
2023-03-10T05:54:07.402Z,87.79
2023-03-10T05:55:07.416Z,87.70
2023-03-10T05:56:07.375Z,87.79
2023-03-10T05:57:07.371Z,87.59
2023-03-10T05:58:07.374Z,87.59
2023-03-10T05:59:07.432Z,87.59
2023-03-10T06:00:07.373Z,87.49
2023-03-10T06:01:07.354Z,87.38
2023-03-10T06:02:07.315Z,87.29
2023-03-10T06:03:07.373Z,87.08
2023-03-10T06:04:07.370Z,87.08
2023-03-10T06:05:09.597Z,86.83
2023-03-10T06:06:07.276Z,86.73
2023-03-10T06:07:07.265Z,86.73
2023-03-10T06:08:07.264Z,87.14
2023-03-10T06:09:07.271Z,87.14
2023-03-10T06:10:07.236Z,87.55
2023-03-10T06:11:07.226Z,87.45
2023-03-10T06:12:07.238Z,87.45
2023-03-10T06:13:07.208Z,87.51
2023-03-10T06:14:07.198Z,87.61
2023-03-10T06:15:07.201Z,87.71
2023-03-10T06:16:07.251Z,87.92
2023-03-10T06:17:07.188Z,87.41
2023-03-10T06:18:07.158Z,87.41
2023-03-10T06:19:07.145Z,86.79
2023-03-10T06:20:07.116Z,86.59
2023-03-10T06:21:07.140Z,86.90
2023-03-10T06:22:07.120Z,87.00
2023-03-10T06:23:07.101Z,87.30
2023-03-10T06:24:07.098Z,87.41
2023-03-10T06:25:07.110Z,87.10
2023-03-10T06:26:07.119Z,87.30
2023-03-10T06:27:07.088Z,88.12
2023-03-10T06:28:09.595Z,88.02
2023-03-10T06:29:07.035Z,88.02
2023-03-10T06:30:07.036Z,88.94
2023-03-10T06:31:07.016Z,88.74
2023-03-10T06:32:07.084Z,88.64
2023-03-10T06:33:06.990Z,89.04
2023-03-10T06:34:06.973Z,89.35
2023-03-10T06:35:06.984Z,89.76
2023-03-10T06:36:06.997Z,89.97
2023-03-10T06:37:06.974Z,90.21
2023-03-10T06:38:06.954Z,90.21
2023-03-10T06:39:06.945Z,90.21
2023-03-10T06:40:06.927Z,90.41
2023-03-10T06:41:06.933Z,90.21
2023-03-10T06:42:06.918Z,90.52
2023-03-10T06:43:06.886Z,90.21
2023-03-10T06:44:06.897Z,90.31
2023-03-10T06:45:06.890Z,89.84
2023-03-10T06:46:06.967Z,89.80
2023-03-10T06:47:06.855Z,89.53
2023-03-10T06:48:06.915Z,89.12
2023-03-10T06:49:06.818Z,89.33
2023-03-10T06:50:06.827Z,89.23
2023-03-10T06:51:06.825Z,88.62
2023-03-10T06:52:06.807Z,88.51
2023-03-10T06:53:06.869Z,88.62
2023-03-10T06:54:06.814Z,88.00
2023-03-10T06:55:06.778Z,87.70
2023-03-10T06:56:06.750Z,87.49
2023-03-10T06:57:06.753Z,86.77
2023-03-10T06:58:06.746Z,87.08
2023-03-10T06:59:06.743Z,86.26
2023-03-10T07:00:06.709Z,86.05
2023-03-10T07:01:06.792Z,85.96
2023-03-10T07:02:06.691Z,85.55
2023-03-10T07:03:06.701Z,85.71
2023-03-10T07:04:06.690Z,85.30
2023-03-10T07:05:06.716Z,85.10
2023-03-10T07:06:06.657Z,85.10
2023-03-10T07:07:06.621Z,85.40
2023-03-10T07:08:06.643Z,85.61
2023-03-10T07:09:06.617Z,85.71
2023-03-10T07:10:08.276Z,85.61
2023-03-10T07:11:06.596Z,85.71
2023-03-10T07:12:06.598Z,85.81
2023-03-10T07:13:06.558Z,86.02
2023-03-10T07:14:06.558Z,85.81
2023-03-10T07:15:06.559Z,85.71
2023-03-10T07:16:06.533Z,85.81
2023-03-10T07:17:06.584Z,85.71
2023-03-10T07:18:06.538Z,85.81
2023-03-10T07:19:07.208Z,85.71
2023-03-10T07:20:06.498Z,85.97
2023-03-10T07:21:07.185Z,85.97
2023-03-10T07:22:06.499Z,86.29
2023-03-10T07:23:06.548Z,86.69
2023-03-10T07:24:06.465Z,86.69
2023-03-10T07:25:07.939Z,86.49
2023-03-10T07:26:06.446Z,86.90
2023-03-10T07:27:07.089Z,87.00
2023-03-10T07:28:06.408Z,86.90
2023-03-10T07:29:07.131Z,86.49
2023-03-10T07:30:06.414Z,86.69
2023-03-10T07:31:06.797Z,86.79
2023-03-10T07:32:06.389Z,86.90
2023-03-10T07:33:06.431Z,87.10
2023-03-10T07:34:06.399Z,86.79
2023-03-10T07:35:06.392Z,87.10
2023-03-10T07:36:06.736Z,86.90
2023-03-10T07:37:06.321Z,87.20
2023-03-10T07:38:06.324Z,87.10
2023-03-10T07:39:06.302Z,87.20
2023-03-10T07:40:06.294Z,86.90
2023-03-10T07:41:06.293Z,86.90
2023-03-10T07:42:06.252Z,87.30
2023-03-10T07:43:06.260Z,87.30
2023-03-10T07:44:06.254Z,87.47
2023-03-10T07:45:06.236Z,86.96
2023-03-10T07:46:06.250Z,87.06
2023-03-10T07:47:06.240Z,87.06
2023-03-10T07:48:06.287Z,87.06
2023-03-10T07:49:06.175Z,87.16
2023-03-10T07:50:06.212Z,87.47
2023-03-10T07:51:06.189Z,87.63
2023-03-10T07:52:06.203Z,87.53
2023-03-10T07:53:06.168Z,87.63
2023-03-10T07:54:06.164Z,87.23
2023-03-10T07:55:06.126Z,87.12
2023-03-10T07:56:06.152Z,87.53
2023-03-10T07:57:06.127Z,87.53
2023-03-10T07:58:06.160Z,87.84
2023-03-10T07:59:06.118Z,87.63
2023-03-10T08:00:06.080Z,87.43
2023-03-10T08:01:06.046Z,87.02
2023-03-10T08:02:06.059Z,87.32
2023-03-10T08:03:06.121Z,87.23
2023-03-10T08:04:06.318Z,87.37
2023-03-10T08:05:06.070Z,87.57
2023-03-10T08:06:06.018Z,87.77
2023-03-10T08:07:05.999Z,87.67
2023-03-10T08:08:05.988Z,87.98
2023-03-10T08:09:05.967Z,88.49
2023-03-10T08:10:05.959Z,89.82
2023-03-10T08:11:05.956Z,90.23
2023-03-10T08:12:05.949Z,90.78
2023-03-10T08:13:05.938Z,91.80
2023-03-10T08:14:05.932Z,92.36
2023-03-10T08:15:05.898Z,93.07
2023-03-10T08:16:05.962Z,93.99
2023-03-10T08:17:05.898Z,94.85
2023-03-10T08:18:05.869Z,94.85
2023-03-10T08:19:05.876Z,95.41
2023-03-10T08:20:05.870Z,96.33
2023-03-10T08:21:05.838Z,96.95
2023-03-10T08:22:05.852Z,97.50
2023-03-10T08:23:06.003Z,97.50
2023-03-10T08:24:05.812Z,98.12
2023-03-10T08:25:05.798Z,97.91
2023-03-10T08:26:05.810Z,97.86
2023-03-10T08:27:05.770Z,98.27
2023-03-10T08:28:05.760Z,98.68
2023-03-10T08:29:05.767Z,98.99
2023-03-10T08:30:05.760Z,98.78
2023-03-10T08:31:05.756Z,99.09
2023-03-10T08:32:05.789Z,98.99
2023-03-10T08:33:05.787Z,98.99
2023-03-10T08:34:05.718Z,99.29
2023-03-10T08:35:05.710Z,99.29
2023-03-10T08:36:05.728Z,99.19
2023-03-10T08:37:05.679Z,99.40
2023-03-10T08:38:05.663Z,99.50
2023-03-10T08:39:05.668Z,99.29
2023-03-10T08:40:05.673Z,99.40
2023-03-10T08:41:05.621Z,99.50
2023-03-10T08:42:05.652Z,98.99
2023-03-10T08:43:05.613Z,98.88
2023-03-10T08:44:05.619Z,98.58
2023-03-10T08:45:08.122Z,97.86
2023-03-10T08:46:08.337Z,97.61
2023-03-10T08:47:05.663Z,97.81
2023-03-10T08:48:05.583Z,98.22
2023-03-10T08:49:05.574Z,96.89
2023-03-10T08:50:05.786Z,96.17
2023-03-10T08:51:05.525Z,96.01
2023-03-10T08:52:05.645Z,96.12
2023-03-10T08:53:05.526Z,96.32
2023-03-10T08:54:05.577Z,97.04
2023-03-10T08:55:05.836Z,97.24
2023-03-10T08:56:06.033Z,96.83
2023-03-10T08:57:05.760Z,97.14
2023-03-10T08:58:06.247Z,97.39
2023-03-10T08:59:05.460Z,97.65
2023-03-10T09:00:05.446Z,97.75
2023-03-10T09:01:05.519Z,97.96
2023-03-10T09:02:05.514Z,97.75
2023-03-10T09:03:05.791Z,97.86
2023-03-10T09:04:05.397Z,98.16
2023-03-10T09:05:05.558Z,98.27
2023-03-10T09:06:05.408Z,98.27
2023-03-10T09:07:05.429Z,98.16
2023-03-10T09:08:05.347Z,98.16
2023-03-10T09:09:05.359Z,98.47
2023-03-10T09:10:05.331Z,98.74
2023-03-10T09:11:05.299Z,98.63
2023-03-10T09:12:05.300Z,98.74
2023-03-10T09:13:13.716Z,98.28
2023-03-10T09:14:06.334Z,97.97
2023-03-10T09:15:05.303Z,97.25
2023-03-10T09:16:05.304Z,96.80
2023-03-10T09:17:05.258Z,96.91
2023-03-10T09:18:05.320Z,96.91
2023-03-10T09:19:05.425Z,97.31
2023-03-10T09:20:05.222Z,96.75
2023-03-10T09:21:05.262Z,96.25
2023-03-10T09:22:05.317Z,95.84
2023-03-10T09:23:05.178Z,95.02
2023-03-10T09:24:05.201Z,94.92
2023-03-10T09:25:05.169Z,95.73
2023-03-10T09:26:05.151Z,95.79
2023-03-10T09:27:05.151Z,94.77
2023-03-10T09:28:05.129Z,94.26
2023-03-10T09:29:05.157Z,94.36
2023-03-10T09:30:05.139Z,93.33
2023-03-10T09:31:05.100Z,93.29
2023-03-10T09:32:06.096Z,93.19
2023-03-10T09:33:05.203Z,93.09
2023-03-10T09:34:05.059Z,92.27
2023-03-10T09:35:05.064Z,92.88
2023-03-10T09:36:06.820Z,93.60
2023-03-10T09:37:06.869Z,92.88
2023-03-10T09:38:05.024Z,92.47
2023-03-10T09:39:05.017Z,92.07
2023-03-10T09:40:06.432Z,91.66
2023-03-10T09:41:08.039Z,91.76
2023-03-10T09:42:05.007Z,92.02
2023-03-10T09:43:04.983Z,90.49
2023-03-10T09:44:04.956Z,90.70
2023-03-10T09:45:04.963Z,89.37
2023-03-10T09:46:05.048Z,88.85
2023-03-10T09:47:04.953Z,86.71
2023-03-10T09:48:05.102Z,86.82
2023-03-10T09:49:04.922Z,87.73
2023-03-10T09:50:04.887Z,87.94
2023-03-10T09:51:04.895Z,87.32
2023-03-10T09:52:04.907Z,88.35
2023-03-10T09:53:04.873Z,89.06
2023-03-10T09:54:04.872Z,89.26
2023-03-10T09:55:04.846Z,88.65
2023-03-10T09:56:04.840Z,88.85
2023-03-10T09:57:04.826Z,89.47
2023-03-10T09:58:04.820Z,90.08
2023-03-10T09:59:04.788Z,88.96
2023-03-10T10:00:04.808Z,88.35
2023-03-10T10:01:04.778Z,86.71
2023-03-10T10:02:04.827Z,87.02
2023-03-10T10:03:05.334Z,88.45
2023-03-10T10:04:04.963Z,88.24
2023-03-10T10:05:04.839Z,87.32
2023-03-10T10:06:04.717Z,87.02
2023-03-10T10:07:04.718Z,86.71
2023-03-10T10:08:04.748Z,87.23
2023-03-10T10:09:05.802Z,88.45
2023-03-10T10:10:04.687Z,88.55
2023-03-10T10:11:04.680Z,87.73
2023-03-10T10:12:04.667Z,88.24
2023-03-10T10:13:04.666Z,88.14
2023-03-10T10:14:04.657Z,88.24
2023-03-10T10:15:04.627Z,88.14
2023-03-10T10:16:21.345Z,87.84
2023-03-10T10:17:05.634Z,87.53
2023-03-10T10:18:16.233Z,88.65
2023-03-10T10:19:05.647Z,87.53
2023-03-10T10:20:04.566Z,89.06
2023-03-10T10:21:04.549Z,88.65
2023-03-10T10:22:04.644Z,88.35
2023-03-10T10:23:04.527Z,88.35
2023-03-10T10:24:04.548Z,89.06
2023-03-10T10:25:06.417Z,88.90
2023-03-10T10:26:04.515Z,89.72
2023-03-10T10:27:04.515Z,89.41
2023-03-10T10:28:04.484Z,90.53
2023-03-10T10:29:04.490Z,90.94
2023-03-10T10:30:04.467Z,91.05
2023-03-10T10:31:04.478Z,90.33
2023-03-10T10:32:04.469Z,90.84
2023-03-10T10:33:04.447Z,91.09
2023-03-10T10:34:04.430Z,90.68
2023-03-10T10:35:04.419Z,90.88
2023-03-10T10:36:04.434Z,91.19
2023-03-10T10:37:04.393Z,91.39
2023-03-10T10:38:04.390Z,91.29
2023-03-10T10:39:04.359Z,90.99
2023-03-10T10:40:04.349Z,91.80
2023-03-10T10:41:07.133Z,91.56
2023-03-10T10:42:04.349Z,91.56
2023-03-10T10:43:04.314Z,91.56
2023-03-10T10:44:04.322Z,91.96
2023-03-10T10:45:04.312Z,91.15
2023-03-10T10:46:04.360Z,90.94
2023-03-10T10:47:04.305Z,91.15
2023-03-10T10:48:04.289Z,90.74
2023-03-10T10:49:04.262Z,89.61
2023-03-10T10:50:04.264Z,89.47
2023-03-10T10:51:04.248Z,89.47
2023-03-10T10:52:04.250Z,90.39
2023-03-10T10:53:04.225Z,89.88
2023-03-10T10:54:04.237Z,89.47
2023-03-10T10:55:04.187Z,89.78
2023-03-10T10:56:04.187Z,89.67
2023-03-10T10:57:04.186Z,88.85
2023-03-10T10:58:04.194Z,88.96
2023-03-10T10:59:04.188Z,88.45
2023-03-10T11:00:04.147Z,88.55
2023-03-10T11:01:04.210Z,88.76
2023-03-10T11:02:04.201Z,88.45
2023-03-10T11:03:04.127Z,89.17
2023-03-10T11:04:04.099Z,89.67
2023-03-10T11:05:04.089Z,89.26
2023-03-10T11:06:04.118Z,90.14
2023-03-10T11:07:04.069Z,89.88
2023-03-10T11:08:04.060Z,89.88
2023-03-10T11:09:04.048Z,89.58
2023-03-10T11:10:04.039Z,90.19
2023-03-10T11:11:04.030Z,88.76
2023-03-10T11:12:04.038Z,89.12
2023-03-10T11:13:04.023Z,89.32
2023-03-10T11:14:04.030Z,87.79
2023-03-10T11:15:04.002Z,86.47
2023-03-10T11:16:04.007Z,87.08
2023-03-10T11:17:03.971Z,86.98
2023-03-10T11:18:03.961Z,87.38
2023-03-10T11:19:03.943Z,87.18
2023-03-10T11:20:03.961Z,87.04
2023-03-10T11:21:03.935Z,86.53
2023-03-10T11:22:03.912Z,86.22
2023-03-10T11:23:03.919Z,86.63
2023-03-10T11:24:03.892Z,86.53
2023-03-10T11:25:03.894Z,86.43
2023-03-10T11:26:03.865Z,86.59
2023-03-10T11:27:03.873Z,85.16
2023-03-10T11:28:03.852Z,85.27
2023-03-10T11:29:03.891Z,83.84
2023-03-10T11:30:03.824Z,83.63
2023-03-10T11:31:03.871Z,84.34
2023-03-10T11:32:03.828Z,85.37
2023-03-10T11:33:03.827Z,85.06
2023-03-10T11:34:03.838Z,84.51
2023-03-10T11:35:03.785Z,84.20
2023-03-10T11:36:03.878Z,84.20
2023-03-10T11:37:03.752Z,83.02
2023-03-10T11:38:03.748Z,83.33
2023-03-10T11:39:03.741Z,82.92
2023-03-10T11:40:03.740Z,83.63
2023-03-10T11:41:03.716Z,83.94
2023-03-10T11:42:03.707Z,82.71
2023-03-10T11:43:03.706Z,83.33
2023-03-10T11:44:03.725Z,83.53
2023-03-10T11:45:03.679Z,83.84
2023-03-10T11:46:03.727Z,83.33
2023-03-10T11:47:03.658Z,83.63
2023-03-10T11:48:03.648Z,83.63
2023-03-10T11:49:03.637Z,84.66
2023-03-10T11:50:03.618Z,84.34
2023-03-10T11:51:03.618Z,84.55
2023-03-10T11:52:03.604Z,84.14
2023-03-10T11:53:03.587Z,84.25
2023-03-10T11:54:03.580Z,84.34
2023-03-10T11:55:03.564Z,84.96
2023-03-10T11:56:03.570Z,83.94
2023-03-10T11:57:03.548Z,84.25
2023-03-10T11:58:03.532Z,84.69
2023-03-10T11:59:03.516Z,85.10
2023-03-10T12:00:03.522Z,85.10
2023-03-10T12:01:03.499Z,84.49
2023-03-10T12:02:03.489Z,84.22
2023-03-10T12:03:03.474Z,84.74
2023-03-10T12:04:03.480Z,85.35
2023-03-10T12:05:03.489Z,86.47
2023-03-10T12:06:03.452Z,87.59
2023-03-10T12:07:03.441Z,87.14
2023-03-10T12:08:03.424Z,87.35
2023-03-10T12:09:03.400Z,85.82
2023-03-10T12:10:03.424Z,85.41
2023-03-10T12:11:03.399Z,86.02
2023-03-10T12:12:03.370Z,86.53
2023-03-10T12:13:03.404Z,85.51
2023-03-10T12:14:03.389Z,86.39
2023-03-10T12:15:03.361Z,86.08
2023-03-10T12:16:03.443Z,86.15
2023-03-10T12:17:03.345Z,85.22
2023-03-10T12:18:03.342Z,85.22
2023-03-10T12:19:03.322Z,83.86
2023-03-10T12:20:03.311Z,83.62
2023-03-10T12:21:03.292Z,81.88
2023-03-10T12:22:03.264Z,81.68
2023-03-10T12:23:03.274Z,80.83
2023-03-10T12:24:03.272Z,81.24
2023-03-10T12:25:03.253Z,79.85
2023-03-10T12:26:03.232Z,79.64
2023-03-10T12:27:03.230Z,79.91
2023-03-10T12:28:03.213Z,80.02
2023-03-10T12:29:03.204Z,79.20
2023-03-10T12:30:03.180Z,79.00
2023-03-10T12:31:03.289Z,78.93
2023-03-10T12:32:03.252Z,78.83
2023-03-10T12:33:03.166Z,79.64
2023-03-10T12:34:03.177Z,80.16
2023-03-10T12:35:03.152Z,80.16
2023-03-10T12:36:03.192Z,80.46
2023-03-10T12:37:03.132Z,78.87
2023-03-10T12:38:03.112Z,78.46
2023-03-10T12:39:03.094Z,78.36
2023-03-10T12:40:03.066Z,77.24
2023-03-10T12:41:03.095Z,77.44
2023-03-10T12:42:03.062Z,79.17
2023-03-10T12:43:03.041Z,79.17
2023-03-10T12:44:03.068Z,78.46
2023-03-10T12:45:03.033Z,77.44
2023-03-10T12:46:03.013Z,78.16
2023-03-10T12:47:03.058Z,78.66
2023-03-10T12:48:02.994Z,78.05
2023-03-10T12:49:02.974Z,78.36
2023-03-10T12:50:02.985Z,77.03
2023-03-10T12:51:02.966Z,77.14
2023-03-10T12:52:03.031Z,78.16